Benwood, Mississippi
Current Conditions -  °F | °C
As of 1:35 AM on Saturday 29 Nov 2014 (Local Time) from KGNF Reporting Station
Clear Clear  
Wind Chill: 45°   Ceiling: Unl
Heat Index: 45°   Visibility: 10mi
Dew Point: 32°   Wind: 3mph
Humidity: 61%   Direction: 200°SSW
Pressure: 30.15"   Gusts: NA
Location:  33.9467°N, 89.6428°W
Report Text: KGNF 290735Z AUTO 20003KT 10SM CLR 07/00 A3015 RMK AO2
Loading
Personal Weather Stations






























Interactive Weather Map New forecast layout! Learn more

10-Day Weather Forecast

Advertisements
Track Severe Weather on mobile